AVN weather

Avignon-Caumont Airport
Avignon/Caumont, Provence-Alpes-Côte-d'Azur, France

Public forecast

Using degrees Celsius for public forecast. Weather courtesy of forecast.io.

Current aviation weather report (METAR) for Avignon-Caumont Airport

Retrieved 2019/12/12 13:30 UTC (0 seconds ago):

LFMV 121330Z AUTO VRB01KT 9999 OVC066 09/M01 Q1008

Aviation forecast (TAF) for Avignon-Caumont Airport

Forecast is more than 6 hours old.

Retrieved 2019-12-12 03:00 UTC (10 hours ago):

TAF LFMV 120200Z 1203/1303 VRB03KT CAVOK PROB40 TEMPO 1203/1210 0400 FG VV/// BECMG 1218/1220 BKN010 BKN030 TEMPO 1220/1224 4000 RA